createdAt,value
2022-10-25T00:01:16.050Z,99140.06
2022-10-25T00:03:44.126Z,99139.78
2022-10-25T00:06:13.444Z,99139.22
2022-10-25T00:08:41.379Z,99139.81
2022-10-25T00:11:17.000Z,99139.22
2022-10-25T00:13:44.822Z,99141.94
2022-10-25T00:16:15.320Z,99142.84
2022-10-25T00:18:43.208Z,99154.28
2022-10-25T00:21:11.047Z,99145.53
2022-10-25T00:23:39.089Z,99150.59
2022-10-25T00:26:08.892Z,99146.50
2022-10-25T00:28:38.138Z,99144.28
2022-10-25T00:31:08.539Z,99139.00
2022-10-25T00:33:37.916Z,99139.78
2022-10-25T00:36:06.760Z,99147.22
2022-10-25T00:38:35.234Z,99153.41
2022-10-25T00:41:03.610Z,99145.19
2022-10-25T00:43:38.756Z,99147.34
2022-10-25T00:46:12.121Z,99144.38
2022-10-25T00:48:40.486Z,99151.72
2022-10-25T00:51:09.199Z,99149.00
2022-10-25T00:53:38.603Z,99158.09
2022-10-25T00:56:17.023Z,99163.78
2022-10-25T00:58:50.257Z,99164.03
2022-10-25T01:01:19.034Z,99160.38
2022-10-25T01:03:51.188Z,99154.19
2022-10-25T01:06:24.068Z,99164.50
2022-10-25T01:08:53.867Z,99161.88
2022-10-25T01:11:21.870Z,99156.88
2022-10-25T01:13:52.258Z,99162.06
2022-10-25T01:16:28.956Z,99152.16
2022-10-25T01:19:06.309Z,99156.22
2022-10-25T01:21:48.589Z,99155.41
2022-10-25T01:24:57.318Z,99158.94
2022-10-25T01:27:48.150Z,99158.28
2022-10-25T01:30:20.769Z,99157.81
2022-10-25T01:32:58.101Z,99157.97
2022-10-25T01:35:30.604Z,99160.81
2022-10-25T01:38:09.968Z,99146.16
2022-10-25T01:40:45.244Z,99150.97
2022-10-25T01:43:22.468Z,99146.81
2022-10-25T01:45:59.171Z,99143.91
2022-10-25T01:48:32.684Z,99136.22
2022-10-25T01:51:07.416Z,99138.88
2022-10-25T01:53:35.227Z,99143.03
2022-10-25T01:56:06.614Z,99138.22
2022-10-25T01:58:40.953Z,99147.22
2022-10-25T02:01:20.185Z,99142.97
2022-10-25T02:03:57.182Z,99135.50
2022-10-25T02:06:32.848Z,99148.81
2022-10-25T02:09:06.542Z,99153.78
2022-10-25T02:11:34.821Z,99154.38
2022-10-25T02:14:13.664Z,99161.69
2022-10-25T02:16:45.908Z,99149.34
2022-10-25T02:19:20.741Z,99155.41
2022-10-25T02:21:50.279Z,99155.66
2022-10-25T02:24:21.833Z,99149.59
2022-10-25T02:26:51.711Z,99156.72
2022-10-25T02:29:20.962Z,99153.81
2022-10-25T02:31:48.894Z,99156.34
2022-10-25T02:34:19.270Z,99159.75
2022-10-25T02:36:50.115Z,99162.16
2022-10-25T02:39:18.996Z,99158.81
2022-10-25T02:41:46.866Z,99157.66
2022-10-25T02:44:14.858Z,99159.97
2022-10-25T02:46:43.116Z,99158.84
2022-10-25T02:49:11.926Z,99154.03
2022-10-25T02:51:41.243Z,99158.66
2022-10-25T02:54:09.412Z,99157.75
2022-10-25T02:56:37.447Z,99159.81
2022-10-25T02:59:05.375Z,99164.69
2022-10-25T03:01:33.426Z,99171.16
2022-10-25T03:04:01.606Z,99175.91
2022-10-25T03:06:30.105Z,99174.09
2022-10-25T03:08:59.312Z,99165.03
2022-10-25T03:11:27.281Z,99167.34
2022-10-25T03:13:55.123Z,99167.25
2022-10-25T03:16:23.022Z,99175.75
2022-10-25T03:18:50.870Z,99176.34
2022-10-25T03:21:18.727Z,99175.69
2022-10-25T03:23:46.580Z,99174.50
2022-10-25T03:26:15.891Z,99175.56
2022-10-25T03:28:43.753Z,99181.84
2022-10-25T03:31:13.302Z,99182.59
2022-10-25T03:33:41.726Z,99172.28
2022-10-25T03:36:09.945Z,99174.97
2022-10-25T03:38:37.847Z,99173.91
2022-10-25T03:41:06.258Z,99180.53
2022-10-25T03:43:35.440Z,99183.34
2022-10-25T03:46:03.338Z,99191.31
2022-10-25T03:48:31.210Z,99193.06
2022-10-25T03:50:59.048Z,99186.72
2022-10-25T03:53:27.215Z,99191.00
2022-10-25T03:55:55.065Z,99189.47
2022-10-25T03:58:22.916Z,99189.81
2022-10-25T04:00:52.209Z,99198.31
2022-10-25T04:03:20.067Z,99197.56
2022-10-25T04:05:47.964Z,99195.31
2022-10-25T04:08:16.896Z,99198.47
2022-10-25T04:10:45.155Z,99201.03
2022-10-25T04:13:13.150Z,99206.22
2022-10-25T04:15:41.010Z,99205.41
2022-10-25T04:18:10.245Z,99202.63
2022-10-25T04:20:38.096Z,99206.91
2022-10-25T04:23:05.997Z,99201.56
2022-10-25T04:25:33.848Z,99198.34
2022-10-25T04:28:01.668Z,99203.00
2022-10-25T04:30:29.814Z,99203.34
2022-10-25T04:32:58.718Z,99205.50
2022-10-25T04:35:27.918Z,99207.53
2022-10-25T04:37:58.376Z,99208.31
2022-10-25T04:40:26.764Z,99209.47
2022-10-25T04:42:54.594Z,99220.38
2022-10-25T04:45:22.475Z,99222.91
2022-10-25T04:47:50.314Z,99219.53
2022-10-25T04:50:18.180Z,99216.66
2022-10-25T04:52:47.611Z,99220.66
2022-10-25T04:55:15.773Z,99220.81
2022-10-25T04:57:43.636Z,99227.19
2022-10-25T05:00:12.700Z,99219.69
2022-10-25T05:02:41.069Z,99221.88
2022-10-25T05:05:09.639Z,99224.41
2022-10-25T05:07:37.487Z,99220.59
2022-10-25T05:10:07.430Z,99213.84
2022-10-25T05:12:35.358Z,99213.22
2022-10-25T05:15:03.214Z,99229.31
2022-10-25T05:17:31.272Z,99216.53
2022-10-25T05:19:59.091Z,99223.53
2022-10-25T05:22:27.311Z,99219.69
2022-10-25T05:24:55.172Z,99222.16
2022-10-25T05:27:24.515Z,99225.28
2022-10-25T05:29:52.302Z,99223.97
2022-10-25T05:32:20.131Z,99221.84
2022-10-25T05:34:47.969Z,99221.16
2022-10-25T05:37:15.768Z,99233.66
2022-10-25T05:39:43.948Z,99233.31
2022-10-25T05:42:11.989Z,99239.78
2022-10-25T05:44:41.222Z,99235.25
2022-10-25T05:47:09.153Z,99241.78
2022-10-25T05:49:42.327Z,99239.63
2022-10-25T05:52:12.344Z,99246.41
2022-10-25T05:54:40.222Z,99257.84
2022-10-25T05:57:08.626Z,99261.13
2022-10-25T05:59:36.471Z,99256.94
2022-10-25T06:02:05.890Z,99255.38
2022-10-25T06:04:33.849Z,99252.38
2022-10-25T06:07:08.702Z,99254.81
2022-10-25T06:10:02.193Z,99257.16
2022-10-25T06:12:30.031Z,99262.38
2022-10-25T06:14:57.819Z,99264.06
2022-10-25T06:17:27.135Z,99267.75
2022-10-25T06:19:54.985Z,99264.38
2022-10-25T06:22:22.796Z,99277.69
2022-10-25T06:24:50.655Z,99269.66
2022-10-25T06:27:18.666Z,99277.03
2022-10-25T06:29:46.498Z,99289.97
2022-10-25T06:32:14.778Z,99290.59
2022-10-25T06:34:43.949Z,99285.84
2022-10-25T06:37:11.832Z,99279.88
2022-10-25T06:39:39.664Z,99289.66
2022-10-25T06:42:07.470Z,99284.00
2022-10-25T06:44:35.311Z,99290.13
2022-10-25T06:47:16.817Z,99288.69
2022-10-25T06:49:46.638Z,99283.38
2022-10-25T06:52:14.467Z,99288.06
2022-10-25T06:54:42.369Z,99285.34
2022-10-25T06:57:10.182Z,99302.66
2022-10-25T06:59:38.073Z,99306.78
2022-10-25T07:02:06.070Z,99298.81
2022-10-25T07:04:34.121Z,99298.38
2022-10-25T07:07:03.339Z,99312.56
2022-10-25T07:09:31.195Z,99312.34
2022-10-25T07:11:59.058Z,99315.00
2022-10-25T07:14:26.936Z,99334.53
2022-10-25T07:16:54.803Z,99334.78
2022-10-25T07:19:23.956Z,99344.00
2022-10-25T07:21:52.049Z,99337.88
2022-10-25T07:24:21.402Z,99344.56
2022-10-25T07:26:49.231Z,99341.53
2022-10-25T07:29:17.193Z,99346.19
2022-10-25T07:31:45.448Z,99347.75
2022-10-25T07:34:15.183Z,99352.25
2022-10-25T07:36:43.413Z,99350.25
2022-10-25T07:39:11.328Z,99357.31
2022-10-25T07:41:40.475Z,99363.44
2022-10-25T07:44:13.036Z,99366.69
2022-10-25T07:46:44.541Z,99365.38
2022-10-25T07:49:12.408Z,99367.38
2022-10-25T07:51:40.330Z,99362.63
2022-10-25T07:54:09.050Z,99359.84
2022-10-25T07:56:36.970Z,99352.78
2022-10-25T07:59:06.735Z,99360.25
2022-10-25T08:01:34.672Z,99359.72
2022-10-25T08:04:02.576Z,99355.59
2022-10-25T08:06:30.464Z,99362.16
2022-10-25T08:09:05.447Z,99366.31
2022-10-25T08:11:43.122Z,99379.09
2022-10-25T08:14:12.427Z,99380.75
2022-10-25T08:16:40.434Z,99368.47
2022-10-25T08:19:08.501Z,99367.63
2022-10-25T08:21:36.471Z,99373.72
2022-10-25T08:24:04.553Z,99377.22
2022-10-25T08:26:36.614Z,99378.81
2022-10-25T08:29:05.232Z,99378.09
2022-10-25T08:31:34.567Z,99378.97
2022-10-25T08:34:02.483Z,99383.56
2022-10-25T08:36:30.382Z,99373.13
2022-10-25T08:38:59.031Z,99365.88
2022-10-25T08:41:35.838Z,99362.53
2022-10-25T08:44:22.537Z,99371.69
2022-10-25T08:47:22.918Z,99365.59
2022-10-25T08:49:56.734Z,99379.22
2022-10-25T08:52:30.347Z,99365.53
2022-10-25T08:55:04.774Z,99362.78
2022-10-25T08:57:35.435Z,99369.91
2022-10-25T09:00:10.429Z,99373.72
2022-10-25T09:02:46.102Z,99387.19
2022-10-25T09:05:18.056Z,99381.56
2022-10-25T09:07:59.359Z,99378.44
2022-10-25T09:10:35.982Z,99390.34
2022-10-25T09:13:12.359Z,99390.88
2022-10-25T09:15:53.519Z,99394.13
2022-10-25T09:18:36.403Z,99386.84
2022-10-25T09:21:14.782Z,99394.56
2022-10-25T09:23:50.882Z,99399.31
2022-10-25T09:26:27.088Z,99400.53
2022-10-25T09:29:02.659Z,99393.72
2022-10-25T09:31:34.445Z,99399.16
2022-10-25T09:34:06.796Z,99401.63
2022-10-25T09:36:39.079Z,99410.78
2022-10-25T09:39:16.692Z,99407.13
2022-10-25T09:41:47.921Z,99397.66
2022-10-25T09:44:27.053Z,99404.47
2022-10-25T09:46:58.665Z,99411.66
2022-10-25T09:49:36.291Z,99410.34
2022-10-25T09:52:14.291Z,99419.53
2022-10-25T09:54:48.180Z,99419.22
2022-10-25T09:57:16.134Z,99419.28
2022-10-25T09:59:45.922Z,99423.09
2022-10-25T10:02:19.083Z,99421.78
2022-10-25T10:04:48.376Z,99412.59
2022-10-25T10:07:21.319Z,99409.16
2022-10-25T10:09:53.835Z,99411.16
2022-10-25T10:12:28.586Z,99413.72
2022-10-25T10:15:00.268Z,99411.28
2022-10-25T10:17:30.651Z,99419.44
2022-10-25T10:20:12.257Z,99417.59
2022-10-25T10:22:46.525Z,99408.59
2022-10-25T10:25:18.427Z,99409.81
2022-10-25T10:27:48.799Z,99410.50
2022-10-25T10:30:28.793Z,99411.59
2022-10-25T10:33:00.257Z,99413.44
2022-10-25T10:35:34.517Z,99401.66
2022-10-25T10:38:20.551Z,99409.84
2022-10-25T10:40:50.800Z,99403.25
2022-10-25T10:43:31.474Z,99407.84
2022-10-25T10:46:07.188Z,99401.38
2022-10-25T10:48:42.985Z,99404.47
2022-10-25T10:51:32.016Z,99400.44
2022-10-25T10:54:24.586Z,99396.38
2022-10-25T10:56:57.148Z,99389.78
2022-10-25T10:59:41.018Z,99392.31
2022-10-25T11:02:19.269Z,99387.72
2022-10-25T11:04:49.585Z,99397.44
2022-10-25T11:07:28.197Z,99398.72
2022-10-25T11:10:21.599Z,99392.91
2022-10-25T11:13:14.531Z,99389.94
2022-10-25T11:16:29.107Z,99396.22
2022-10-25T11:19:09.798Z,99397.31
2022-10-25T11:22:00.809Z,99395.75
2022-10-25T11:24:38.415Z,99385.84
2022-10-25T11:27:15.681Z,99377.03
2022-10-25T11:30:00.442Z,99386.44
2022-10-25T11:33:02.636Z,99389.25
2022-10-25T11:35:45.627Z,99386.47
2022-10-25T11:38:21.809Z,99400.44
2022-10-25T11:41:02.791Z,99397.78
2022-10-25T11:43:46.915Z,99397.16
2022-10-25T11:46:26.691Z,99401.09
2022-10-25T11:49:21.854Z,99399.31
2022-10-25T11:52:04.149Z,99397.75
2022-10-25T11:54:40.847Z,99393.16
2022-10-25T11:57:20.441Z,99392.19
2022-10-25T12:00:01.854Z,99385.59
2022-10-25T12:02:47.619Z,99393.69
2022-10-25T12:05:26.239Z,99399.66
2022-10-25T12:08:01.222Z,99394.78
2022-10-25T12:10:35.570Z,99396.53
2022-10-25T12:13:14.609Z,99397.94
2022-10-25T12:15:46.180Z,99395.09
2022-10-25T12:18:22.576Z,99395.91
2022-10-25T12:20:54.449Z,99390.25
2022-10-25T12:23:24.985Z,99400.59
2022-10-25T12:25:54.294Z,99395.91
2022-10-25T12:28:29.069Z,99394.63
2022-10-25T12:31:01.981Z,99396.69
2022-10-25T12:33:37.687Z,99392.91
2022-10-25T12:36:08.914Z,99397.63
2022-10-25T12:38:38.431Z,99392.69
2022-10-25T12:41:10.169Z,99387.53
2022-10-25T12:43:48.653Z,99388.03
2022-10-25T12:46:40.282Z,99392.44
2022-10-25T12:49:28.479Z,99396.22
2022-10-25T12:52:11.390Z,99391.03
2022-10-25T12:55:11.462Z,99383.50
2022-10-25T12:57:50.141Z,99380.78
2022-10-25T13:03:21.655Z,99375.41
2022-10-25T13:06:12.298Z,99379.38
2022-10-25T13:08:41.071Z,99389.13
2022-10-25T13:11:10.634Z,99382.09
2022-10-25T13:13:41.543Z,99378.41
2022-10-25T13:16:11.664Z,99379.25
2022-10-25T13:18:43.385Z,99370.03
2022-10-25T13:21:13.125Z,99372.06
2022-10-25T13:24:03.006Z,99370.28
2022-10-25T13:26:33.792Z,99370.47
2022-10-25T13:29:04.240Z,99365.09
2022-10-25T13:32:10.173Z,99365.44
2022-10-25T13:34:40.378Z,99366.69
2022-10-25T13:37:45.498Z,99360.69
2022-10-25T13:40:26.412Z,99367.78
2022-10-25T13:43:03.610Z,99369.19
2022-10-25T13:45:40.045Z,99370.97
2022-10-25T13:48:19.630Z,99367.13
2022-10-25T13:50:52.788Z,99370.50
2022-10-25T13:53:23.446Z,99373.41
2022-10-25T13:55:59.399Z,99371.03
2022-10-25T13:58:46.103Z,99370.09
2022-10-25T14:01:54.914Z,99368.25
2022-10-25T14:04:35.792Z,99372.50
2022-10-25T14:07:41.133Z,99374.88
2022-10-25T14:10:14.893Z,99376.84
2022-10-25T14:12:48.705Z,99377.09
2022-10-25T14:15:24.510Z,99371.81
2022-10-25T14:17:53.532Z,99359.28
2022-10-25T14:20:27.876Z,99355.72
2022-10-25T14:23:00.349Z,99356.41
2022-10-25T14:25:34.155Z,99352.63
2022-10-25T14:28:16.489Z,99362.84
2022-10-25T14:30:45.779Z,99356.88
2022-10-25T14:33:31.018Z,99358.91
2022-10-25T14:36:10.055Z,99349.19
2022-10-25T14:38:50.781Z,99348.75
2022-10-25T14:41:22.939Z,99355.38
2022-10-25T14:43:50.775Z,99350.28
2022-10-25T14:46:19.880Z,99349.16
2022-10-25T14:48:49.089Z,99348.91
2022-10-25T14:51:21.991Z,99345.16
2022-10-25T14:53:56.688Z,99345.94
2022-10-25T14:56:29.179Z,99345.53
2022-10-25T14:58:57.959Z,99343.97
2022-10-25T15:01:26.941Z,99342.69
2022-10-25T15:04:01.151Z,99336.56
2022-10-25T15:06:34.895Z,99335.47
2022-10-25T15:09:37.379Z,99337.91
2022-10-25T15:12:08.780Z,99337.22
2022-10-25T15:14:37.781Z,99331.84
2022-10-25T15:17:07.747Z,99333.75
2022-10-25T15:20:02.996Z,99341.00
2022-10-25T15:22:34.660Z,99333.78
2022-10-25T15:25:02.668Z,99334.28
2022-10-25T15:27:35.735Z,99335.31
2022-10-25T15:30:05.194Z,99332.81
2022-10-25T15:32:34.259Z,99326.38
2022-10-25T15:35:03.320Z,99324.16
2022-10-25T15:37:32.525Z,99335.03
2022-10-25T15:40:01.086Z,99321.41
2022-10-25T15:42:29.039Z,99323.81
2022-10-25T15:44:56.963Z,99321.38
2022-10-25T15:47:31.122Z,99312.06
2022-10-25T15:49:59.855Z,99321.34
2022-10-25T15:52:27.725Z,99316.22
2022-10-25T15:54:57.031Z,99312.88
2022-10-25T15:57:27.281Z,99316.28
2022-10-25T15:59:56.009Z,99320.97
2022-10-25T16:02:28.427Z,99322.06
2022-10-25T16:04:56.536Z,99313.84
2022-10-25T16:07:24.486Z,99312.91
2022-10-25T16:09:52.327Z,99304.34
2022-10-25T16:12:26.329Z,99304.34
2022-10-25T16:14:54.325Z,99301.94
2022-10-25T16:17:22.206Z,99301.41
2022-10-25T16:19:50.023Z,99311.03
2022-10-25T16:22:18.667Z,99308.66
2022-10-25T16:24:46.566Z,99315.22
2022-10-25T16:27:14.770Z,99319.91
2022-10-25T16:29:44.097Z,99317.06
2022-10-25T16:32:12.126Z,99315.41
2022-10-25T16:34:42.549Z,99328.47
2022-10-25T16:37:11.935Z,99324.91
2022-10-25T16:39:40.036Z,99324.22
2022-10-25T16:42:29.454Z,99321.19
2022-10-25T16:44:59.386Z,99319.72
2022-10-25T16:47:27.793Z,99327.34
2022-10-25T16:49:55.952Z,99326.00
2022-10-25T16:52:23.995Z,99326.13
2022-10-25T16:54:52.044Z,99325.38
2022-10-25T16:57:20.156Z,99325.97
2022-10-25T16:59:48.072Z,99330.63
2022-10-25T17:02:20.561Z,99328.66
2022-10-25T17:04:49.474Z,99335.75
2022-10-25T17:07:17.543Z,99332.38
2022-10-25T17:09:45.402Z,99334.28
2022-10-25T17:12:13.759Z,99340.72
2022-10-25T17:14:42.061Z,99331.59
2022-10-25T17:17:10.069Z,99335.63
2022-10-25T17:19:39.397Z,99341.03
2022-10-25T17:22:07.989Z,99341.34
2022-10-25T17:24:37.572Z,99337.97
2022-10-25T17:29:33.985Z,99329.03
2022-10-25T17:32:01.795Z,99330.22
2022-10-25T17:34:31.511Z,99332.38
2022-10-25T17:37:02.380Z,99329.22
2022-10-25T17:39:30.508Z,99327.09
2022-10-25T17:41:58.390Z,99329.47
2022-10-25T17:44:26.254Z,99328.28
2022-10-25T17:46:54.863Z,99323.69
2022-10-25T17:49:24.429Z,99324.97
2022-10-25T17:51:52.246Z,99322.69
2022-10-25T17:54:21.598Z,99323.63
2022-10-25T17:56:49.427Z,99326.00
2022-10-25T17:59:17.279Z,99326.34
2022-10-25T18:01:45.198Z,99318.13
2022-10-25T18:04:13.072Z,99317.91
2022-10-25T18:06:40.900Z,99311.16
2022-10-25T18:09:10.045Z,99313.75
2022-10-25T18:11:39.287Z,99320.06
2022-10-25T18:14:10.384Z,99311.28
2022-10-25T18:16:38.683Z,99304.56
2022-10-25T18:19:07.194Z,99308.69
2022-10-25T18:21:35.592Z,99312.16
2022-10-25T18:24:05.911Z,99310.00
2022-10-25T18:26:35.140Z,99312.06
2022-10-25T18:29:05.447Z,99312.00
2022-10-25T18:31:33.437Z,99306.63
2022-10-25T18:34:04.788Z,99302.53
2022-10-25T18:36:32.841Z,99302.84
2022-10-25T18:39:01.253Z,99303.50
2022-10-25T18:41:31.123Z,99299.31
2022-10-25T18:44:00.419Z,99298.88
2022-10-25T18:46:31.855Z,99308.19
2022-10-25T18:48:59.823Z,99303.41
2022-10-25T18:51:29.769Z,99296.16
2022-10-25T18:53:58.999Z,99296.44
2022-10-25T18:56:27.240Z,99295.81
2022-10-25T18:58:56.700Z,99290.00
2022-10-25T19:01:27.956Z,99282.22
2022-10-25T19:03:58.069Z,99277.75
2022-10-25T19:06:26.788Z,99278.25
2022-10-25T19:08:54.742Z,99287.41
2022-10-25T19:11:22.682Z,99278.94
2022-10-25T19:13:54.666Z,99276.84
2022-10-25T19:16:23.037Z,99279.09
2022-10-25T19:18:51.434Z,99273.81
2022-10-25T19:21:20.807Z,99272.91
2022-10-25T19:23:48.920Z,99273.56
2022-10-25T19:26:20.343Z,99282.09
2022-10-25T19:28:48.640Z,99277.44
2022-10-25T19:31:18.333Z,99280.66
2022-10-25T19:33:46.981Z,99272.00
2022-10-25T19:36:15.269Z,99284.88
2022-10-25T19:38:45.219Z,99280.31
2022-10-25T19:41:15.975Z,99288.78
2022-10-25T19:43:43.867Z,99284.22
2022-10-25T19:46:12.047Z,99275.78
2022-10-25T19:48:39.977Z,99271.44
2022-10-25T19:51:09.849Z,99275.56
2022-10-25T19:53:37.944Z,99277.53
2022-10-25T19:56:10.056Z,99271.84
2022-10-25T19:58:37.969Z,99278.94
2022-10-25T20:01:08.541Z,99287.16
2022-10-25T20:03:37.161Z,99294.19
2022-10-25T20:06:07.714Z,99283.06
2022-10-25T20:08:36.213Z,99281.84
2022-10-25T20:11:04.416Z,99284.06
2022-10-25T20:13:34.107Z,99289.91
2022-10-25T20:16:01.993Z,99287.03
2022-10-25T20:18:32.491Z,99290.09
2022-10-25T20:21:01.480Z,99285.34
2022-10-25T20:23:30.480Z,99285.63
2022-10-25T20:25:58.432Z,99289.97
2022-10-25T20:28:26.295Z,99290.09
2022-10-25T20:31:03.366Z,99303.38
2022-10-25T20:33:36.625Z,99299.97
2022-10-25T20:36:07.445Z,99287.84
2022-10-25T20:38:36.446Z,99286.75
2022-10-25T20:41:05.943Z,99289.91
2022-10-25T20:43:34.525Z,99294.34
2022-10-25T20:46:03.979Z,99288.25
2022-10-25T20:48:32.237Z,99281.09
2022-10-25T20:51:04.115Z,99286.69
2022-10-25T20:53:36.851Z,99284.13
2022-10-25T20:56:05.186Z,99285.03
2022-10-25T20:58:35.437Z,99285.03
2022-10-25T21:01:05.033Z,99279.41
2022-10-25T21:03:34.311Z,99290.28
2022-10-25T21:06:04.352Z,99283.72
2022-10-25T21:08:33.486Z,99281.06
2022-10-25T21:11:03.426Z,99280.66
2022-10-25T21:13:32.727Z,99282.94
2022-10-25T21:16:07.908Z,99284.56
2022-10-25T21:18:37.174Z,99278.56
2022-10-25T21:21:10.949Z,99275.56
2022-10-25T21:23:38.876Z,99273.69
2022-10-25T21:26:09.499Z,99271.56
2022-10-25T21:28:39.205Z,99266.72
2022-10-25T21:31:12.321Z,99265.63
2022-10-25T21:33:41.734Z,99273.88
2022-10-25T21:36:12.223Z,99267.28
2022-10-25T21:38:40.508Z,99257.63
2022-10-25T21:41:10.476Z,99254.00
2022-10-25T21:43:41.692Z,99246.22
2022-10-25T21:46:11.176Z,99246.94
2022-10-25T21:48:39.197Z,99245.47
2022-10-25T21:51:08.175Z,99246.81
2022-10-25T21:53:36.073Z,99243.03
2022-10-25T21:56:06.272Z,99240.22
2022-10-25T21:58:34.284Z,99241.78
2022-10-25T22:01:02.155Z,99238.38
2022-10-25T22:03:32.105Z,99233.91
2022-10-25T22:06:00.113Z,99226.03
2022-10-25T22:08:27.943Z,99223.59
2022-10-25T22:10:57.388Z,99229.00
2022-10-25T22:13:25.462Z,99222.97
2022-10-25T22:16:00.662Z,99231.69
2022-10-25T22:18:28.823Z,99228.81
2022-10-25T22:21:00.098Z,99225.94
2022-10-25T22:23:31.721Z,99231.44
2022-10-25T22:26:03.539Z,99230.81
2022-10-25T22:28:33.304Z,99235.16
2022-10-25T22:31:05.961Z,99231.47
2022-10-25T22:33:33.747Z,99231.16
2022-10-25T22:38:32.466Z,99226.03
2022-10-25T22:41:01.877Z,99228.72
2022-10-25T22:43:30.316Z,99220.94
2022-10-25T22:46:01.614Z,99223.81
2022-10-25T22:48:31.527Z,99220.78
2022-10-25T22:51:00.334Z,99220.53
2022-10-25T22:53:30.476Z,99218.06
2022-10-25T22:55:59.831Z,99217.84
2022-10-25T22:58:29.462Z,99222.00
2022-10-25T23:01:00.590Z,99221.50
2022-10-25T23:03:28.513Z,99225.28
2022-10-25T23:05:59.575Z,99218.31
2022-10-25T23:08:29.323Z,99222.78
2022-10-25T23:11:01.841Z,99221.59
2022-10-25T23:13:30.697Z,99220.72
2022-10-25T23:15:58.632Z,99213.22
2022-10-25T23:18:27.154Z,99230.94
2022-10-25T23:20:56.425Z,99228.06
2022-10-25T23:23:24.951Z,99225.06
2022-10-25T23:25:54.801Z,99227.72
2022-10-25T23:28:22.946Z,99229.47
2022-10-25T23:30:50.794Z,99227.22
2022-10-25T23:33:18.649Z,99215.50
2022-10-25T23:35:46.500Z,99208.63
2022-10-25T23:38:14.676Z,99211.31
2022-10-25T23:40:46.869Z,99210.78
2022-10-25T23:43:16.166Z,99209.31
2022-10-25T23:45:44.030Z,99211.63
2022-10-25T23:48:11.925Z,99209.88
2022-10-25T23:50:39.737Z,99199.91
2022-10-25T23:53:08.568Z,99203.53
2022-10-25T23:55:38.594Z,99203.97
2022-10-25T23:58:06.517Z,99206.09
